sensor_id;sensor_type;location;lat;lon;timestamp;temperature;humidity
8593;DHT22;4334;49.982;8.398;2023-04-10T00:01:09;4.40;99.90
8593;DHT22;4334;49.982;8.398;2023-04-10T00:03:36;4.40;99.90
8593;DHT22;4334;49.982;8.398;2023-04-10T00:06:03;4.40;99.90
8593;DHT22;4334;49.982;8.398;2023-04-10T00:08:30;4.40;99.90
8593;DHT22;4334;49.982;8.398;2023-04-10T00:10:56;4.30;99.90
8593;DHT22;4334;49.982;8.398;2023-04-10T00:13:23;4.30;99.90
8593;DHT22;4334;49.982;8.398;2023-04-10T00:15:51;4.30;99.90
8593;DHT22;4334;49.982;8.398;2023-04-10T00:18:18;4.30;99.90
8593;DHT22;4334;49.982;8.398;2023-04-10T00:20:45;4.20;99.90
8593;DHT22;4334;49.982;8.398;2023-04-10T00:23:12;4.20;99.90
8593;DHT22;4334;49.982;8.398;2023-04-10T00:25:38;4.20;99.90
8593;DHT22;4334;49.982;8.398;2023-04-10T00:28:06;5.30;99.90
8593;DHT22;4334;49.982;8.398;2023-04-10T00:30:32;5.40;99.90
8593;DHT22;4334;49.982;8.398;2023-04-10T00:33:01;4.20;99.90
8593;DHT22;4334;49.982;8.398;2023-04-10T00:35:27;4.20;99.90
8593;DHT22;4334;49.982;8.398;2023-04-10T00:37:54;4.30;99.90
8593;DHT22;4334;49.982;8.398;2023-04-10T00:40:22;4.20;99.90
8593;DHT22;4334;49.982;8.398;2023-04-10T00:42:49;4.30;99.90
8593;DHT22;4334;49.982;8.398;2023-04-10T00:45:16;4.40;99.90
8593;DHT22;4334;49.982;8.398;2023-04-10T00:47:43;4.60;99.90
8593;DHT22;4334;49.982;8.398;2023-04-10T00:50:11;4.70;99.90
8593;DHT22;4334;49.982;8.398;2023-04-10T00:52:38;4.90;99.90
8593;DHT22;4334;49.982;8.398;2023-04-10T00:55:05;5.10;99.90
8593;DHT22;4334;49.982;8.398;2023-04-10T00:57:33;5.20;99.90
8593;DHT22;4334;49.982;8.398;2023-04-10T00:59:59;5.10;99.90
8593;DHT22;4334;49.982;8.398;2023-04-10T01:02:26;5.10;99.90
8593;DHT22;4334;49.982;8.398;2023-04-10T01:04:53;5.00;99.90
8593;DHT22;4334;49.982;8.398;2023-04-10T01:07:29;5.00;99.90
8593;DHT22;4334;49.982;8.398;2023-04-10T01:10:06;5.10;99.90
8593;DHT22;4334;49.982;8.398;2023-04-10T01:12:47;5.00;99.90
8593;DHT22;4334;49.982;8.398;2023-04-10T01:15:19;5.70;99.90
8593;DHT22;4334;49.982;8.398;2023-04-10T01:17:51;8.00;99.90
8593;DHT22;4334;49.982;8.398;2023-04-10T01:20:21;5.80;99.90
8593;DHT22;4334;49.982;8.398;2023-04-10T01:23:10;5.90;99.90
8593;DHT22;4334;49.982;8.398;2023-04-10T01:25:40;5.90;99.90
8593;DHT22;4334;49.982;8.398;2023-04-10T01:31:29;5.60;99.90
8593;DHT22;4334;49.982;8.398;2023-04-10T01:34:02;8.50;99.90
8593;DHT22;4334;49.982;8.398;2023-04-10T01:36:35;9.50;99.90
8593;DHT22;4334;49.982;8.398;2023-04-10T01:39:03;5.90;99.90
8593;DHT22;4334;49.982;8.398;2023-04-10T01:41:32;6.10;99.90
8593;DHT22;4334;49.982;8.398;2023-04-10T01:44:00;6.20;99.90
8593;DHT22;4334;49.982;8.398;2023-04-10T01:46:30;6.20;99.90
8593;DHT22;4334;49.982;8.398;2023-04-10T01:49:00;6.10;99.90
8593;DHT22;4334;49.982;8.398;2023-04-10T01:51:29;6.00;99.90
8593;DHT22;4334;49.982;8.398;2023-04-10T01:53:57;6.10;99.90
8593;DHT22;4334;49.982;8.398;2023-04-10T01:56:25;6.20;99.90
8593;DHT22;4334;49.982;8.398;2023-04-10T01:58:52;6.20;99.90
8593;DHT22;4334;49.982;8.398;2023-04-10T02:01:19;6.20;99.90
8593;DHT22;4334;49.982;8.398;2023-04-10T02:03:47;6.20;99.90
8593;DHT22;4334;49.982;8.398;2023-04-10T02:06:17;6.10;99.90
8593;DHT22;4334;49.982;8.398;2023-04-10T02:08:52;6.10;99.90
8593;DHT22;4334;49.982;8.398;2023-04-10T02:11:24;5.90;99.90
8593;DHT22;4334;49.982;8.398;2023-04-10T02:13:57;5.80;99.90
8593;DHT22;4334;49.982;8.398;2023-04-10T02:16:26;5.80;99.90
8593;DHT22;4334;49.982;8.398;2023-04-10T02:18:57;5.80;99.90
8593;DHT22;4334;49.982;8.398;2023-04-10T02:21:25;5.70;99.90
8593;DHT22;4334;49.982;8.398;2023-04-10T02:23:54;9.40;99.90
8593;DHT22;4334;49.982;8.398;2023-04-10T02:26:22;5.50;99.90
8593;DHT22;4334;49.982;8.398;2023-04-10T02:28:48;5.50;99.90
8593;DHT22;4334;49.982;8.398;2023-04-10T02:31:15;5.50;99.90
8593;DHT22;4334;49.982;8.398;2023-04-10T02:33:42;5.50;99.90
8593;DHT22;4334;49.982;8.398;2023-04-10T02:36:10;5.50;99.90
8593;DHT22;4334;49.982;8.398;2023-04-10T02:38:37;5.50;99.90
8593;DHT22;4334;49.982;8.398;2023-04-10T02:41:04;8.40;99.90
8593;DHT22;4334;49.982;8.398;2023-04-10T02:43:31;5.50;99.90
8593;DHT22;4334;49.982;8.398;2023-04-10T02:45:57;5.50;99.90
8593;DHT22;4334;49.982;8.398;2023-04-10T02:48:24;6.20;99.90
8593;DHT22;4334;49.982;8.398;2023-04-10T02:50:55;5.60;99.90
8593;DHT22;4334;49.982;8.398;2023-04-10T02:53:23;5.60;99.90
8593;DHT22;4334;49.982;8.398;2023-04-10T02:55:51;5.70;99.90
8593;DHT22;4334;49.982;8.398;2023-04-10T02:58:19;5.80;99.90
8593;DHT22;4334;49.982;8.398;2023-04-10T03:00:47;5.80;99.90
8593;DHT22;4334;49.982;8.398;2023-04-10T03:03:15;5.80;99.90
8593;DHT22;4334;49.982;8.398;2023-04-10T03:05:41;8.60;99.90
8593;DHT22;4334;49.982;8.398;2023-04-10T03:08:08;5.80;99.90
8593;DHT22;4334;49.982;8.398;2023-04-10T03:10:36;5.80;99.90
8593;DHT22;4334;49.982;8.398;2023-04-10T03:13:03;5.80;99.90
8593;DHT22;4334;49.982;8.398;2023-04-10T03:15:30;5.80;99.90
8593;DHT22;4334;49.982;8.398;2023-04-10T03:17:58;5.80;99.90
8593;DHT22;4334;49.982;8.398;2023-04-10T03:20:27;5.90;99.90
8593;DHT22;4334;49.982;8.398;2023-04-10T03:22:54;5.90;99.90
8593;DHT22;4334;49.982;8.398;2023-04-10T03:25:21;5.90;99.90
8593;DHT22;4334;49.982;8.398;2023-04-10T03:27:49;5.90;99.90
8593;DHT22;4334;49.982;8.398;2023-04-10T03:30:16;5.90;99.90
8593;DHT22;4334;49.982;8.398;2023-04-10T03:32:43;5.90;99.90
8593;DHT22;4334;49.982;8.398;2023-04-10T03:35:09;5.90;99.90
8593;DHT22;4334;49.982;8.398;2023-04-10T03:37:36;5.90;99.90
8593;DHT22;4334;49.982;8.398;2023-04-10T03:40:05;5.90;99.90
8593;DHT22;4334;49.982;8.398;2023-04-10T03:42:33;5.80;99.90
8593;DHT22;4334;49.982;8.398;2023-04-10T03:45:01;5.80;99.90
8593;DHT22;4334;49.982;8.398;2023-04-10T03:47:29;5.80;99.90
8593;DHT22;4334;49.982;8.398;2023-04-10T03:49:56;5.70;99.90
8593;DHT22;4334;49.982;8.398;2023-04-10T03:52:23;5.70;99.90
8593;DHT22;4334;49.982;8.398;2023-04-10T03:54:49;5.70;99.90
8593;DHT22;4334;49.982;8.398;2023-04-10T03:57:17;5.60;99.90
8593;DHT22;4334;49.982;8.398;2023-04-10T03:59:45;5.60;99.90
8593;DHT22;4334;49.982;8.398;2023-04-10T04:02:13;5.60;99.90
8593;DHT22;4334;49.982;8.398;2023-04-10T04:04:40;5.60;99.90
8593;DHT22;4334;49.982;8.398;2023-04-10T04:07:07;5.60;99.90
8593;DHT22;4334;49.982;8.398;2023-04-10T04:09:34;5.50;99.90
8593;DHT22;4334;49.982;8.398;2023-04-10T04:12:01;5.50;99.90
8593;DHT22;4334;49.982;8.398;2023-04-10T04:14:28;5.50;99.90
8593;DHT22;4334;49.982;8.398;2023-04-10T04:16:54;5.40;99.90
8593;DHT22;4334;49.982;8.398;2023-04-10T04:19:22;5.50;99.90
8593;DHT22;4334;49.982;8.398;2023-04-10T04:21:50;5.40;99.90
8593;DHT22;4334;49.982;8.398;2023-04-10T04:24:16;5.50;99.90
8593;DHT22;4334;49.982;8.398;2023-04-10T04:26:43;5.40;99.90
8593;DHT22;4334;49.982;8.398;2023-04-10T04:29:10;5.40;99.90
8593;DHT22;4334;49.982;8.398;2023-04-10T04:31:36;5.30;99.90
8593;DHT22;4334;49.982;8.398;2023-04-10T04:34:03;5.40;99.90
8593;DHT22;4334;49.982;8.398;2023-04-10T04:36:31;5.40;99.90
8593;DHT22;4334;49.982;8.398;2023-04-10T04:38:57;5.30;99.90
8593;DHT22;4334;49.982;8.398;2023-04-10T04:41:24;5.40;99.90
8593;DHT22;4334;49.982;8.398;2023-04-10T04:43:51;5.40;99.90
8593;DHT22;4334;49.982;8.398;2023-04-10T04:46:19;5.40;99.90
8593;DHT22;4334;49.982;8.398;2023-04-10T04:48:46;5.50;99.90
8593;DHT22;4334;49.982;8.398;2023-04-10T04:51:13;5.50;99.90
8593;DHT22;4334;49.982;8.398;2023-04-10T04:53:41;5.60;99.90
8593;DHT22;4334;49.982;8.398;2023-04-10T04:56:08;5.60;99.90
8593;DHT22;4334;49.982;8.398;2023-04-10T04:58:35;5.60;99.90
8593;DHT22;4334;49.982;8.398;2023-04-10T05:01:01;5.70;99.90
8593;DHT22;4334;49.982;8.398;2023-04-10T05:03:28;5.70;99.90
8593;DHT22;4334;49.982;8.398;2023-04-10T05:05:55;5.70;99.90
8593;DHT22;4334;49.982;8.398;2023-04-10T05:08:22;5.70;99.90
8593;DHT22;4334;49.982;8.398;2023-04-10T05:10:50;5.80;99.90
8593;DHT22;4334;49.982;8.398;2023-04-10T05:13:16;6.00;99.90
8593;DHT22;4334;49.982;8.398;2023-04-10T05:15:43;6.10;99.90
8593;DHT22;4334;49.982;8.398;2023-04-10T05:18:10;6.20;99.90
8593;DHT22;4334;49.982;8.398;2023-04-10T05:20:38;6.30;99.90
8593;DHT22;4334;49.982;8.398;2023-04-10T05:23:05;6.30;99.90
8593;DHT22;4334;49.982;8.398;2023-04-10T05:25:32;6.40;99.90
8593;DHT22;4334;49.982;8.398;2023-04-10T05:28:00;6.50;99.90
8593;DHT22;4334;49.982;8.398;2023-04-10T05:30:27;9.40;99.90
8593;DHT22;4334;49.982;8.398;2023-04-10T05:32:53;6.70;99.90
8593;DHT22;4334;49.982;8.398;2023-04-10T05:35:20;6.80;99.90
8593;DHT22;4334;49.982;8.398;2023-04-10T05:37:47;6.80;99.90
8593;DHT22;4334;49.982;8.398;2023-04-10T05:40:14;6.80;99.90
8593;DHT22;4334;49.982;8.398;2023-04-10T05:42:41;6.90;99.90
8593;DHT22;4334;49.982;8.398;2023-04-10T05:45:09;8.80;99.90
8593;DHT22;4334;49.982;8.398;2023-04-10T05:47:36;6.90;99.90
8593;DHT22;4334;49.982;8.398;2023-04-10T05:50:04;7.00;99.90
8593;DHT22;4334;49.982;8.398;2023-04-10T05:52:30;7.20;99.90
8593;DHT22;4334;49.982;8.398;2023-04-10T05:54:57;7.30;99.90
8593;DHT22;4334;49.982;8.398;2023-04-10T05:57:24;7.40;99.90
8593;DHT22;4334;49.982;8.398;2023-04-10T05:59:51;7.50;99.90
8593;DHT22;4334;49.982;8.398;2023-04-10T06:02:19;7.80;99.90
8593;DHT22;4334;49.982;8.398;2023-04-10T06:04:46;8.00;99.90
8593;DHT22;4334;49.982;8.398;2023-04-10T06:07:12;8.30;99.90
8593;DHT22;4334;49.982;8.398;2023-04-10T06:09:39;8.50;99.90
8593;DHT22;4334;49.982;8.398;2023-04-10T06:12:06;8.70;99.90
8593;DHT22;4334;49.982;8.398;2023-04-10T06:14:33;9.00;99.90
8593;DHT22;4334;49.982;8.398;2023-04-10T06:17:00;9.30;99.90
8593;DHT22;4334;49.982;8.398;2023-04-10T06:19:28;9.40;99.90
8593;DHT22;4334;49.982;8.398;2023-04-10T06:21:55;9.70;99.90
8593;DHT22;4334;49.982;8.398;2023-04-10T06:24:21;9.80;99.90
8593;DHT22;4334;49.982;8.398;2023-04-10T06:26:48;10.10;99.90
8593;DHT22;4334;49.982;8.398;2023-04-10T06:29:14;9.80;99.90
8593;DHT22;4334;49.982;8.398;2023-04-10T06:31:41;9.70;99.90
8593;DHT22;4334;49.982;8.398;2023-04-10T06:34:08;9.70;99.90
8593;DHT22;4334;49.982;8.398;2023-04-10T06:36:36;9.60;99.90
8593;DHT22;4334;49.982;8.398;2023-04-10T06:39:03;9.90;99.90
8593;DHT22;4334;49.982;8.398;2023-04-10T06:41:30;10.40;99.90
8593;DHT22;4334;49.982;8.398;2023-04-10T06:43:57;11.10;99.90
8593;DHT22;4334;49.982;8.398;2023-04-10T06:46:26;11.40;99.90
8593;DHT22;4334;49.982;8.398;2023-04-10T06:48:52;11.40;99.90
8593;DHT22;4334;49.982;8.398;2023-04-10T06:51:19;11.60;99.90
8593;DHT22;4334;49.982;8.398;2023-04-10T06:53:47;11.70;99.90
8593;DHT22;4334;49.982;8.398;2023-04-10T06:56:14;11.70;99.90
8593;DHT22;4334;49.982;8.398;2023-04-10T06:58:40;11.40;99.90
8593;DHT22;4334;49.982;8.398;2023-04-10T07:01:07;11.50;99.90
8593;DHT22;4334;49.982;8.398;2023-04-10T07:03:34;12.00;99.90
8593;DHT22;4334;49.982;8.398;2023-04-10T07:06:00;11.60;99.90
8593;DHT22;4334;49.982;8.398;2023-04-10T07:08:27;12.00;99.90
8593;DHT22;4334;49.982;8.398;2023-04-10T07:10:55;12.60;99.90
8593;DHT22;4334;49.982;8.398;2023-04-10T07:13:22;12.70;99.90
8593;DHT22;4334;49.982;8.398;2023-04-10T07:15:48;16.20;99.90
8593;DHT22;4334;49.982;8.398;2023-04-10T07:18:15;13.00;99.90
8593;DHT22;4334;49.982;8.398;2023-04-10T07:20:42;12.90;99.90
8593;DHT22;4334;49.982;8.398;2023-04-10T07:23:09;13.00;99.90
8593;DHT22;4334;49.982;8.398;2023-04-10T07:25:36;13.20;99.90
8593;DHT22;4334;49.982;8.398;2023-04-10T07:28:04;13.50;99.90
8593;DHT22;4334;49.982;8.398;2023-04-10T07:30:31;13.50;99.90
8593;DHT22;4334;49.982;8.398;2023-04-10T07:32:57;13.70;99.90
8593;DHT22;4334;49.982;8.398;2023-04-10T07:35:24;14.40;99.90
8593;DHT22;4334;49.982;8.398;2023-04-10T07:37:51;14.50;99.90
8593;DHT22;4334;49.982;8.398;2023-04-10T07:40:19;14.90;99.90
8593;DHT22;4334;49.982;8.398;2023-04-10T07:42:45;15.00;99.90
8593;DHT22;4334;49.982;8.398;2023-04-10T07:45:14;14.50;99.90
8593;DHT22;4334;49.982;8.398;2023-04-10T07:47:41;14.50;99.90
8593;DHT22;4334;49.982;8.398;2023-04-10T07:50:08;14.40;99.90
8593;DHT22;4334;49.982;8.398;2023-04-10T07:52:35;14.80;99.90
8593;DHT22;4334;49.982;8.398;2023-04-10T07:55:01;15.20;99.90
8593;DHT22;4334;49.982;8.398;2023-04-10T07:57:28;14.40;99.90
8593;DHT22;4334;49.982;8.398;2023-04-10T07:59:56;15.50;99.90
8593;DHT22;4334;49.982;8.398;2023-04-10T08:02:24;15.40;99.90
8593;DHT22;4334;49.982;8.398;2023-04-10T08:04:51;15.00;99.90
8593;DHT22;4334;49.982;8.398;2023-04-10T08:09:45;15.80;99.90
8593;DHT22;4334;49.982;8.398;2023-04-10T08:12:12;15.40;99.90
8593;DHT22;4334;49.982;8.398;2023-04-10T08:14:38;18.00;99.90
8593;DHT22;4334;49.982;8.398;2023-04-10T08:17:05;15.50;99.90
8593;DHT22;4334;49.982;8.398;2023-04-10T08:19:40;16.00;99.90
8593;DHT22;4334;49.982;8.398;2023-04-10T08:22:06;16.00;99.90
8593;DHT22;4334;49.982;8.398;2023-04-10T08:24:33;16.50;99.90
8593;DHT22;4334;49.982;8.398;2023-04-10T08:27:00;17.10;99.20
8593;DHT22;4334;49.982;8.398;2023-04-10T08:29:27;17.60;98.60
8593;DHT22;4334;49.982;8.398;2023-04-10T08:31:53;17.90;97.40
8593;DHT22;4334;49.982;8.398;2023-04-10T08:34:20;17.00;96.70
8593;DHT22;4334;49.982;8.398;2023-04-10T08:36:50;16.40;95.20
8593;DHT22;4334;49.982;8.398;2023-04-10T08:39:17;21.70;98.30
8593;DHT22;4334;49.982;8.398;2023-04-10T08:41:43;17.60;94.90
8593;DHT22;4334;49.982;8.398;2023-04-10T08:44:10;18.10;93.80
8593;DHT22;4334;49.982;8.398;2023-04-10T08:46:41;17.10;94.30
8593;DHT22;4334;49.982;8.398;2023-04-10T08:49:10;17.70;93.40
8593;DHT22;4334;49.982;8.398;2023-04-10T08:51:43;18.00;92.60
8593;DHT22;4334;49.982;8.398;2023-04-10T08:54:24;17.20;93.70
8593;DHT22;4334;49.982;8.398;2023-04-10T08:56:53;17.10;92.70
8593;DHT22;4334;49.982;8.398;2023-04-10T08:59:21;17.30;93.50
8593;DHT22;4334;49.982;8.398;2023-04-10T09:01:47;16.90;93.20
8593;DHT22;4334;49.982;8.398;2023-04-10T09:04:14;17.30;92.80
8593;DHT22;4334;49.982;8.398;2023-04-10T09:06:42;17.30;93.80
8593;DHT22;4334;49.982;8.398;2023-04-10T09:09:08;16.70;93.70
8593;DHT22;4334;49.982;8.398;2023-04-10T09:11:59;16.60;94.50
8593;DHT22;4334;49.982;8.398;2023-04-10T09:14:27;17.60;94.00
8593;DHT22;4334;49.982;8.398;2023-04-10T09:17:12;18.10;92.70
8593;DHT22;4334;49.982;8.398;2023-04-10T09:19:39;18.10;92.50
8593;DHT22;4334;49.982;8.398;2023-04-10T09:22:06;17.00;93.80
8593;DHT22;4334;49.982;8.398;2023-04-10T09:24:35;17.70;94.80
8593;DHT22;4334;49.982;8.398;2023-04-10T09:27:04;18.90;92.90
8593;DHT22;4334;49.982;8.398;2023-04-10T09:29:41;20.50;91.50
8593;DHT22;4334;49.982;8.398;2023-04-10T09:32:08;19.10;91.10
8593;DHT22;4334;49.982;8.398;2023-04-10T09:34:51;18.90;91.90
8593;DHT22;4334;49.982;8.398;2023-04-10T09:37:18;18.90;91.80
8593;DHT22;4334;49.982;8.398;2023-04-10T09:39:47;18.30;91.50
8593;DHT22;4334;49.982;8.398;2023-04-10T09:42:15;18.60;91.50
8593;DHT22;4334;49.982;8.398;2023-04-10T09:44:41;18.40;91.30
8593;DHT22;4334;49.982;8.398;2023-04-10T09:47:16;18.80;90.90
8593;DHT22;4334;49.982;8.398;2023-04-10T09:49:44;18.20;91.20
8593;DHT22;4334;49.982;8.398;2023-04-10T09:52:17;18.00;91.60
8593;DHT22;4334;49.982;8.398;2023-04-10T09:54:44;17.80;91.20
8593;DHT22;4334;49.982;8.398;2023-04-10T09:57:15;17.50;91.20
8593;DHT22;4334;49.982;8.398;2023-04-10T09:59:43;17.20;91.00
8593;DHT22;4334;49.982;8.398;2023-04-10T10:02:16;17.70;92.00
8593;DHT22;4334;49.982;8.398;2023-04-10T10:04:44;18.70;91.10
8593;DHT22;4334;49.982;8.398;2023-04-10T10:07:13;18.90;90.40
8593;DHT22;4334;49.982;8.398;2023-04-10T10:09:41;18.20;90.70
8593;DHT22;4334;49.982;8.398;2023-04-10T10:12:08;18.40;90.70
8593;DHT22;4334;49.982;8.398;2023-04-10T10:14:46;18.40;87.10
8593;DHT22;4334;49.982;8.398;2023-04-10T10:17:17;18.10;85.80
8593;DHT22;4334;49.982;8.398;2023-04-10T10:19:55;18.00;87.80
8593;DHT22;4334;49.982;8.398;2023-04-10T10:22:24;21.60;90.10
8593;DHT22;4334;49.982;8.398;2023-04-10T10:24:53;18.60;86.50
8593;DHT22;4334;49.982;8.398;2023-04-10T10:27:22;19.20;85.30
8593;DHT22;4334;49.982;8.398;2023-04-10T10:29:53;17.40;83.60
8593;DHT22;4334;49.982;8.398;2023-04-10T10:32:20;19.00;88.40
8593;DHT22;4334;49.982;8.398;2023-04-10T10:34:47;19.70;89.00
8593;DHT22;4334;49.982;8.398;2023-04-10T10:37:18;20.10;85.60
8593;DHT22;4334;49.982;8.398;2023-04-10T10:39:52;20.50;83.10
8593;DHT22;4334;49.982;8.398;2023-04-10T10:42:26;20.20;82.80
8593;DHT22;4334;49.982;8.398;2023-04-10T10:45:07;20.20;81.80
8593;DHT22;4334;49.982;8.398;2023-04-10T10:47:39;20.90;83.10
8593;DHT22;4334;49.982;8.398;2023-04-10T10:50:08;21.50;80.40
8593;DHT22;4334;49.982;8.398;2023-04-10T10:52:43;20.50;77.10
8593;DHT22;4334;49.982;8.398;2023-04-10T10:55:29;19.80;78.20
8593;DHT22;4334;49.982;8.398;2023-04-10T10:58:04;20.50;77.50
8593;DHT22;4334;49.982;8.398;2023-04-10T11:01:06;21.20;77.60
8593;DHT22;4334;49.982;8.398;2023-04-10T11:03:34;22.30;74.70
8593;DHT22;4334;49.982;8.398;2023-04-10T11:06:03;21.10;73.10
8593;DHT22;4334;49.982;8.398;2023-04-10T11:08:39;21.70;73.40
8593;DHT22;4334;49.982;8.398;2023-04-10T11:11:10;22.50;73.50
8593;DHT22;4334;49.982;8.398;2023-04-10T11:13:41;21.60;72.00
8593;DHT22;4334;49.982;8.398;2023-04-10T11:16:09;24.20;81.10
8593;DHT22;4334;49.982;8.398;2023-04-10T11:19:01;21.10;75.00
8593;DHT22;4334;49.982;8.398;2023-04-10T11:21:28;20.70;73.70
8593;DHT22;4334;49.982;8.398;2023-04-10T11:24:03;21.20;74.80
8593;DHT22;4334;49.982;8.398;2023-04-10T11:26:37;21.50;73.70
8593;DHT22;4334;49.982;8.398;2023-04-10T11:29:32;22.40;71.90
8593;DHT22;4334;49.982;8.398;2023-04-10T11:32:01;25.50;69.80
8593;DHT22;4334;49.982;8.398;2023-04-10T11:34:29;22.10;66.60
8593;DHT22;4334;49.982;8.398;2023-04-10T11:36:57;22.10;68.40
8593;DHT22;4334;49.982;8.398;2023-04-10T11:39:29;22.50;69.80
8593;DHT22;4334;49.982;8.398;2023-04-10T11:41:56;22.20;70.10
8593;DHT22;4334;49.982;8.398;2023-04-10T11:44:28;22.90;67.70
8593;DHT22;4334;49.982;8.398;2023-04-10T11:46:56;22.60;64.60
8593;DHT22;4334;49.982;8.398;2023-04-10T11:49:26;22.30;65.70
8593;DHT22;4334;49.982;8.398;2023-04-10T11:51:54;21.90;66.90
8593;DHT22;4334;49.982;8.398;2023-04-10T11:54:22;21.50;66.80
8593;DHT22;4334;49.982;8.398;2023-04-10T11:56:58;21.10;69.70
8593;DHT22;4334;49.982;8.398;2023-04-10T11:59:25;21.10;69.60
8593;DHT22;4334;49.982;8.398;2023-04-10T12:02:07;24.50;73.30
8593;DHT22;4334;49.982;8.398;2023-04-10T12:04:35;23.70;71.40
8593;DHT22;4334;49.982;8.398;2023-04-10T12:07:02;21.30;69.00
8593;DHT22;4334;49.982;8.398;2023-04-10T12:09:29;21.80;68.50
8593;DHT22;4334;49.982;8.398;2023-04-10T12:11:58;22.20;67.90
8593;DHT22;4334;49.982;8.398;2023-04-10T12:14:30;22.60;67.10
8593;DHT22;4334;49.982;8.398;2023-04-10T12:16:57;22.90;66.40
8593;DHT22;4334;49.982;8.398;2023-04-10T12:19:25;22.90;66.40
8593;DHT22;4334;49.982;8.398;2023-04-10T12:21:53;23.40;65.10
8593;DHT22;4334;49.982;8.398;2023-04-10T12:24:40;22.70;64.70
8593;DHT22;4334;49.982;8.398;2023-04-10T12:27:07;21.80;67.10
8593;DHT22;4334;49.982;8.398;2023-04-10T12:29:34;21.60;67.70
8593;DHT22;4334;49.982;8.398;2023-04-10T12:32:06;22.50;66.20
8593;DHT22;4334;49.982;8.398;2023-04-10T12:34:33;23.20;66.90
8593;DHT22;4334;49.982;8.398;2023-04-10T12:37:01;23.40;62.70
8593;DHT22;4334;49.982;8.398;2023-04-10T12:39:29;24.30;65.70
8593;DHT22;4334;49.982;8.398;2023-04-10T12:42:10;23.00;64.20
8593;DHT22;4334;49.982;8.398;2023-04-10T12:44:49;23.10;66.30
8593;DHT22;4334;49.982;8.398;2023-04-10T12:47:15;22.00;64.30
8593;DHT22;4334;49.982;8.398;2023-04-10T12:50:01;22.00;64.60
8593;DHT22;4334;49.982;8.398;2023-04-10T12:52:30;21.60;64.60
8593;DHT22;4334;49.982;8.398;2023-04-10T12:55:10;21.50;65.50
8593;DHT22;4334;49.982;8.398;2023-04-10T12:57:38;21.10;66.40
8593;DHT22;4334;49.982;8.398;2023-04-10T13:00:09;21.60;66.30
8593;DHT22;4334;49.982;8.398;2023-04-10T13:02:37;21.30;65.50
8593;DHT22;4334;49.982;8.398;2023-04-10T13:05:05;23.20;66.00
8593;DHT22;4334;49.982;8.398;2023-04-10T13:07:34;21.60;64.80
8593;DHT22;4334;49.982;8.398;2023-04-10T13:10:02;25.50;69.10
8593;DHT22;4334;49.982;8.398;2023-04-10T13:12:30;21.80;65.20
8593;DHT22;4334;49.982;8.398;2023-04-10T13:14:57;21.40;65.10
8593;DHT22;4334;49.982;8.398;2023-04-10T13:17:24;21.00;65.00
8593;DHT22;4334;49.982;8.398;2023-04-10T13:19:51;21.30;66.60
8593;DHT22;4334;49.982;8.398;2023-04-10T13:22:18;20.60;67.50
8593;DHT22;4334;49.982;8.398;2023-04-10T13:24:47;23.80;71.70
8593;DHT22;4334;49.982;8.398;2023-04-10T13:27:13;21.00;66.50
8593;DHT22;4334;49.982;8.398;2023-04-10T13:29:41;21.30;65.40
8593;DHT22;4334;49.982;8.398;2023-04-10T13:32:08;21.20;65.30
8593;DHT22;4334;49.982;8.398;2023-04-10T13:34:35;21.10;66.30
8593;DHT22;4334;49.982;8.398;2023-04-10T13:37:02;20.50;65.70
8593;DHT22;4334;49.982;8.398;2023-04-10T13:39:29;20.60;68.20
8593;DHT22;4334;49.982;8.398;2023-04-10T13:41:57;21.20;65.00
8593;DHT22;4334;49.982;8.398;2023-04-10T13:44:26;21.10;65.90
8593;DHT22;4334;49.982;8.398;2023-04-10T13:46:53;21.50;65.70
8593;DHT22;4334;49.982;8.398;2023-04-10T13:49:19;21.50;64.70
8593;DHT22;4334;49.982;8.398;2023-04-10T13:51:46;21.30;64.50
8593;DHT22;4334;49.982;8.398;2023-04-10T13:54:13;20.90;65.70
8593;DHT22;4334;49.982;8.398;2023-04-10T13:56:41;21.20;65.30
8593;DHT22;4334;49.982;8.398;2023-04-10T13:59:10;21.50;63.10
8593;DHT22;4334;49.982;8.398;2023-04-10T14:01:36;21.30;63.30
8593;DHT22;4334;49.982;8.398;2023-04-10T14:04:03;24.30;67.50
8593;DHT22;4334;49.982;8.398;2023-04-10T14:06:30;21.50;63.50
8593;DHT22;4334;49.982;8.398;2023-04-10T14:08:57;21.80;62.90
8593;DHT22;4334;49.982;8.398;2023-04-10T14:11:24;21.60;62.80
8593;DHT22;4334;49.982;8.398;2023-04-10T14:13:50;21.60;61.40
8593;DHT22;4334;49.982;8.398;2023-04-10T14:16:19;21.10;63.10
8593;DHT22;4334;49.982;8.398;2023-04-10T14:18:45;21.00;63.60
8593;DHT22;4334;49.982;8.398;2023-04-10T14:21:12;21.10;64.60
8593;DHT22;4334;49.982;8.398;2023-04-10T14:23:40;21.30;63.90
8593;DHT22;4334;49.982;8.398;2023-04-10T14:26:07;21.40;64.40
8593;DHT22;4334;49.982;8.398;2023-04-10T14:28:34;25.50;66.40
8593;DHT22;4334;49.982;8.398;2023-04-10T14:31:03;21.10;61.90
8593;DHT22;4334;49.982;8.398;2023-04-10T14:33:32;21.10;62.60
8593;DHT22;4334;49.982;8.398;2023-04-10T14:35:59;21.70;62.80
8593;DHT22;4334;49.982;8.398;2023-04-10T14:38:26;22.00;61.10
8593;DHT22;4334;49.982;8.398;2023-04-10T14:40:52;21.20;62.30
8593;DHT22;4334;49.982;8.398;2023-04-10T14:43:19;25.50;67.40
8593;DHT22;4334;49.982;8.398;2023-04-10T14:45:46;21.20;63.40
8593;DHT22;4334;49.982;8.398;2023-04-10T14:48:12;21.00;64.10
8593;DHT22;4334;49.982;8.398;2023-04-10T14:50:41;20.20;63.50
8593;DHT22;4334;49.982;8.398;2023-04-10T14:53:07;20.20;63.90
8593;DHT22;4334;49.982;8.398;2023-04-10T14:55:35;20.10;62.20
8593;DHT22;4334;49.982;8.398;2023-04-10T14:58:02;19.80;62.20
8593;DHT22;4334;49.982;8.398;2023-04-10T15:00:31;19.50;63.10
8593;DHT22;4334;49.982;8.398;2023-04-10T15:02:58;23.80;67.90
8593;DHT22;4334;49.982;8.398;2023-04-10T15:05:25;19.30;63.30
8593;DHT22;4334;49.982;8.398;2023-04-10T15:07:54;19.20;63.20
8593;DHT22;4334;49.982;8.398;2023-04-10T15:10:21;19.40;63.50
8593;DHT22;4334;49.982;8.398;2023-04-10T15:12:47;19.60;63.90
8593;DHT22;4334;49.982;8.398;2023-04-10T15:15:14;19.60;63.50
8593;DHT22;4334;49.982;8.398;2023-04-10T15:17:43;19.50;64.00
8593;DHT22;4334;49.982;8.398;2023-04-10T15:20:11;19.70;64.10
8593;DHT22;4334;49.982;8.398;2023-04-10T15:22:38;20.10;64.20
8593;DHT22;4334;49.982;8.398;2023-04-10T15:25:08;20.30;63.20
8593;DHT22;4334;49.982;8.398;2023-04-10T15:27:36;20.20;63.90
8593;DHT22;4334;49.982;8.398;2023-04-10T15:30:04;20.30;63.70
8593;DHT22;4334;49.982;8.398;2023-04-10T15:32:35;20.40;65.00
8593;DHT22;4334;49.982;8.398;2023-04-10T15:35:03;20.60;65.10
8593;DHT22;4334;49.982;8.398;2023-04-10T15:37:30;21.00;65.10
8593;DHT22;4334;49.982;8.398;2023-04-10T15:39:57;23.50;67.60
8593;DHT22;4334;49.982;8.398;2023-04-10T15:42:25;21.10;64.20
8593;DHT22;4334;49.982;8.398;2023-04-10T15:44:52;21.40;65.30
8593;DHT22;4334;49.982;8.398;2023-04-10T15:47:19;21.30;65.10
8593;DHT22;4334;49.982;8.398;2023-04-10T15:49:45;21.00;64.80
8593;DHT22;4334;49.982;8.398;2023-04-10T15:52:12;20.90;65.00
8593;DHT22;4334;49.982;8.398;2023-04-10T15:54:39;21.20;65.10
8593;DHT22;4334;49.982;8.398;2023-04-10T15:57:06;21.00;65.80
8593;DHT22;4334;49.982;8.398;2023-04-10T15:59:36;20.70;67.20
8593;DHT22;4334;49.982;8.398;2023-04-10T16:02:02;20.40;68.70
8593;DHT22;4334;49.982;8.398;2023-04-10T16:04:29;20.00;69.00
8593;DHT22;4334;49.982;8.398;2023-04-10T16:06:56;19.70;70.70
8593;DHT22;4334;49.982;8.398;2023-04-10T16:09:23;19.40;70.90
8593;DHT22;4334;49.982;8.398;2023-04-10T16:11:50;19.10;72.10
8593;DHT22;4334;49.982;8.398;2023-04-10T16:14:17;18.80;72.50
8593;DHT22;4334;49.982;8.398;2023-04-10T16:16:45;20.50;75.90
8593;DHT22;4334;49.982;8.398;2023-04-10T16:19:12;20.20;77.00
8593;DHT22;4334;49.982;8.398;2023-04-10T16:21:39;18.30;75.10